Terminal Aerodrome Forecast
Issued by NWS

Home | Current Version | Previous Version | Text Only | Print | Product List | Glossary On
Versions: 1 2 3 4 5 6 7 8 9 10 11 12
000
FTUS43 KPAH 230520
TAFOWB
TAF
KOWB 230520Z 2306/2406 09009KT P6SM -SHRA SCT025 OVC090
     FM230900 06012KT 5SM -SHRA BR OVC018
     FM231200 07009KT 6SM -SHRA BR OVC012=

USA.gov is the U.S. government's official web portal to all federal, state and local government web resources and services.